createdAt,value
2022-11-16T00:00:35.304Z,7.99
2022-11-16T00:03:03.989Z,7.79
2022-11-16T00:05:31.016Z,8.04
2022-11-16T00:07:58.234Z,8.38
2022-11-16T00:10:25.132Z,8.45
2022-11-16T00:12:51.961Z,8.42
2022-11-16T00:15:18.839Z,8.53
2022-11-16T00:17:45.728Z,8.48
2022-11-16T00:20:12.744Z,8.63
2022-11-16T00:22:39.596Z,8.61
2022-11-16T00:25:07.106Z,8.61
2022-11-16T00:27:33.949Z,8.34
2022-11-16T00:30:00.832Z,8.43
2022-11-16T00:32:27.693Z,8.61
2022-11-16T00:34:54.637Z,8.61
2022-11-16T00:37:21.533Z,8.43
2022-11-16T00:39:48.414Z,8.31
2022-11-16T00:42:15.381Z,8.24
2022-11-16T00:44:42.218Z,8.17
2022-11-16T00:47:09.137Z,8.17
2022-11-16T00:49:36.274Z,7.98
2022-11-16T00:52:03.161Z,8.01
2022-11-16T00:54:30.124Z,8.00
2022-11-16T00:56:58.048Z,8.02
2022-11-16T00:59:25.886Z,8.23
2022-11-16T01:01:56.558Z,8.10
2022-11-16T01:04:23.513Z,8.14
2022-11-16T01:06:50.525Z,8.25
2022-11-16T01:09:17.423Z,8.27
2022-11-16T01:12:06.010Z,8.04
2022-11-16T01:14:32.897Z,8.19
2022-11-16T01:17:00.456Z,8.32
2022-11-16T01:19:27.840Z,8.36
2022-11-16T01:21:54.939Z,8.36
2022-11-16T01:24:22.107Z,7.75
2022-11-16T01:26:48.997Z,7.41
2022-11-16T01:29:16.089Z,7.53
2022-11-16T01:31:48.625Z,7.47
2022-11-16T01:34:15.939Z,7.17
2022-11-16T01:36:42.839Z,7.01
2022-11-16T01:39:13.053Z,6.97
2022-11-16T01:41:45.963Z,7.09
2022-11-16T01:44:32.601Z,7.02
2022-11-16T01:47:11.708Z,6.80
2022-11-16T01:49:43.285Z,6.69
2022-11-16T01:52:16.537Z,6.46
2022-11-16T01:54:46.445Z,6.08
2022-11-16T01:57:20.350Z,5.69
2022-11-16T02:00:00.327Z,5.33
2022-11-16T02:02:41.322Z,5.56
2022-11-16T02:05:22.997Z,5.56
2022-11-16T02:08:29.199Z,5.29
2022-11-16T02:11:23.645Z,5.12
2022-11-16T02:14:03.956Z,5.23
2022-11-16T02:16:58.938Z,5.25
2022-11-16T02:19:43.816Z,5.20
2022-11-16T02:22:37.250Z,5.30
2022-11-16T02:25:53.982Z,4.90
2022-11-16T02:28:53.629Z,4.77
2022-11-16T02:31:27.352Z,4.62
2022-11-16T02:33:58.961Z,4.64
2022-11-16T02:36:26.349Z,4.66
2022-11-16T02:39:00.977Z,4.69
2022-11-16T02:41:34.040Z,4.67
2022-11-16T02:44:07.483Z,4.97
2022-11-16T02:46:38.055Z,4.85
2022-11-16T02:49:14.311Z,4.65
2022-11-16T02:51:42.492Z,4.67
2022-11-16T02:54:15.657Z,4.64
2022-11-16T02:57:04.123Z,4.85
2022-11-16T02:59:44.311Z,4.87
2022-11-16T03:02:39.107Z,4.64
2022-11-16T03:05:32.188Z,4.51
2022-11-16T03:08:07.175Z,4.32
2022-11-16T03:10:57.490Z,4.43
2022-11-16T03:13:29.292Z,4.38
2022-11-16T03:15:57.033Z,4.14
2022-11-16T03:18:29.199Z,4.03
2022-11-16T03:21:12.962Z,3.50
2022-11-16T03:23:40.053Z,3.02
2022-11-16T03:26:10.551Z,2.97
2022-11-16T03:28:48.335Z,2.65
2022-11-16T03:31:25.844Z,2.45
2022-11-16T03:33:57.273Z,2.35
2022-11-16T03:36:33.956Z,2.41
2022-11-16T03:39:11.290Z,2.44
2022-11-16T03:41:46.808Z,2.61
2022-11-16T03:44:16.154Z,2.56
2022-11-16T03:46:45.050Z,2.79
2022-11-16T03:49:13.726Z,2.90
2022-11-16T03:51:41.808Z,2.61
2022-11-16T03:54:08.784Z,2.36
2022-11-16T03:56:36.328Z,2.48
2022-11-16T03:59:03.660Z,2.60
2022-11-16T04:01:31.604Z,2.57
2022-11-16T04:03:59.837Z,2.51
2022-11-16T04:06:45.383Z,2.45
2022-11-16T04:09:24.141Z,2.34
2022-11-16T04:12:09.699Z,2.51
2022-11-16T04:14:57.665Z,2.72
2022-11-16T04:17:45.899Z,2.69
2022-11-16T04:20:33.273Z,2.66
2022-11-16T04:23:33.212Z,2.60
2022-11-16T04:26:02.265Z,2.73
2022-11-16T04:28:34.180Z,2.97
2022-11-16T04:31:23.537Z,2.95
2022-11-16T04:34:35.196Z,2.89
2022-11-16T04:37:22.331Z,2.82
2022-11-16T04:39:49.271Z,2.85
2022-11-16T04:42:19.960Z,2.92
2022-11-16T04:45:08.622Z,3.09
2022-11-16T04:47:45.384Z,3.14
2022-11-16T04:50:12.344Z,2.99
2022-11-16T04:52:41.372Z,3.12
2022-11-16T04:55:12.353Z,3.09
2022-11-16T04:57:40.252Z,2.95
2022-11-16T05:00:08.577Z,2.98
2022-11-16T05:02:37.362Z,3.11
2022-11-16T05:05:04.579Z,3.08
2022-11-16T05:07:31.562Z,3.06
2022-11-16T05:10:07.893Z,3.59
2022-11-16T05:12:35.251Z,3.50
2022-11-16T05:15:06.392Z,3.53
2022-11-16T05:17:34.365Z,3.66
2022-11-16T05:20:21.652Z,3.72
2022-11-16T05:22:56.913Z,3.61
2022-11-16T05:25:26.834Z,3.61
2022-11-16T05:27:54.291Z,3.49
2022-11-16T05:30:21.433Z,3.73
2022-11-16T05:32:49.040Z,3.88
2022-11-16T05:35:18.461Z,3.84
2022-11-16T05:37:46.255Z,3.78
2022-11-16T05:40:13.315Z,3.99
2022-11-16T05:42:50.120Z,4.37
2022-11-16T05:45:21.128Z,4.44
2022-11-16T05:47:49.320Z,4.36
2022-11-16T05:50:16.827Z,4.61
2022-11-16T05:52:46.959Z,4.46
2022-11-16T05:55:13.891Z,4.52
2022-11-16T05:57:44.209Z,4.62
2022-11-16T06:00:12.359Z,4.87
2022-11-16T06:02:42.373Z,5.25
2022-11-16T06:05:17.553Z,5.50
2022-11-16T06:07:45.312Z,5.41
2022-11-16T06:10:12.583Z,5.09
2022-11-16T06:12:42.117Z,5.67
2022-11-16T06:15:09.344Z,5.87
2022-11-16T06:17:36.606Z,5.95
2022-11-16T06:20:03.981Z,6.28
2022-11-16T06:22:31.304Z,5.80
2022-11-16T06:24:58.241Z,6.22
2022-11-16T06:27:26.397Z,6.24
2022-11-16T06:29:53.292Z,5.74
2022-11-16T06:32:21.186Z,6.07
2022-11-16T06:34:48.102Z,6.40
2022-11-16T06:37:15.904Z,6.04
2022-11-16T06:39:43.163Z,5.93
2022-11-16T06:42:10.342Z,5.83
2022-11-16T06:44:38.699Z,5.99
2022-11-16T06:47:08.092Z,6.56
2022-11-16T06:49:35.804Z,6.22
2022-11-16T06:52:08.097Z,6.63
2022-11-16T06:54:35.592Z,6.43
2022-11-16T06:57:02.960Z,6.08
2022-11-16T06:59:30.014Z,6.20
2022-11-16T07:01:57.164Z,6.60
2022-11-16T07:04:25.215Z,6.54
2022-11-16T07:06:56.122Z,6.71
2022-11-16T07:09:23.162Z,6.78
2022-11-16T07:11:50.302Z,7.09
2022-11-16T07:14:18.678Z,7.20
2022-11-16T07:16:45.729Z,7.41
2022-11-16T07:19:12.836Z,7.77
2022-11-16T07:21:41.045Z,8.06
2022-11-16T07:24:13.687Z,8.63
2022-11-16T07:26:40.559Z,8.48
2022-11-16T07:29:12.697Z,8.81
2022-11-16T07:31:44.218Z,9.28
2022-11-16T07:34:46.274Z,8.59
2022-11-16T07:37:16.103Z,8.23
2022-11-16T07:39:45.731Z,8.68
2022-11-16T07:42:13.416Z,9.50
2022-11-16T07:44:59.206Z,11.12
2022-11-16T07:47:26.261Z,11.84
2022-11-16T07:49:55.445Z,12.22
2022-11-16T07:52:25.785Z,12.97
2022-11-16T07:54:57.623Z,13.70
2022-11-16T07:57:27.039Z,13.71
2022-11-16T07:59:56.194Z,14.01
2022-11-16T08:02:23.448Z,13.85
2022-11-16T08:04:51.329Z,12.53
2022-11-16T08:07:23.035Z,11.77
2022-11-16T08:09:55.543Z,11.58
2022-11-16T08:12:22.884Z,11.28
2022-11-16T08:14:49.821Z,11.26
2022-11-16T08:17:16.677Z,10.80
2022-11-16T08:19:44.266Z,10.97
2022-11-16T08:22:14.490Z,11.07
2022-11-16T08:24:42.465Z,12.53
2022-11-16T08:27:09.507Z,14.18
2022-11-16T08:29:36.621Z,14.04
2022-11-16T08:32:06.293Z,13.61
2022-11-16T08:34:34.749Z,13.20
2022-11-16T08:37:01.683Z,13.84
2022-11-16T08:39:43.983Z,13.25
2022-11-16T08:42:10.898Z,13.09
2022-11-16T08:44:39.467Z,13.65
2022-11-16T08:47:11.332Z,13.58
2022-11-16T08:49:49.243Z,14.44
2022-11-16T08:52:18.557Z,16.26
2022-11-16T08:54:46.409Z,15.76
2022-11-16T08:57:13.490Z,15.99
2022-11-16T08:59:42.782Z,16.44
2022-11-16T09:02:13.177Z,16.56
2022-11-16T09:04:40.196Z,17.02
2022-11-16T09:07:07.209Z,17.66
2022-11-16T09:09:34.185Z,17.35
2022-11-16T09:12:01.121Z,17.59
2022-11-16T09:14:37.887Z,18.35
2022-11-16T09:17:04.808Z,18.35
2022-11-16T09:19:31.731Z,17.17
2022-11-16T09:21:58.708Z,18.25
2022-11-16T09:24:25.630Z,18.83
2022-11-16T09:26:52.681Z,18.59
2022-11-16T09:29:19.686Z,18.55
2022-11-16T09:31:46.721Z,19.75
2022-11-16T09:34:13.694Z,21.14
2022-11-16T09:36:40.620Z,21.61
2022-11-16T09:42:19.721Z,24.02
2022-11-16T09:45:00.185Z,23.21
2022-11-16T09:47:51.863Z,22.83
2022-11-16T09:53:36.203Z,22.55
2022-11-16T09:56:05.631Z,23.32
2022-11-16T09:59:00.313Z,23.44
2022-11-16T10:01:32.765Z,23.49
2022-11-16T10:04:07.180Z,24.00
2022-11-16T10:07:08.917Z,24.55
2022-11-16T10:09:36.291Z,24.17
2022-11-16T10:12:24.205Z,24.32
2022-11-16T10:15:15.932Z,24.74
2022-11-16T10:17:57.819Z,24.71
2022-11-16T10:20:37.991Z,24.36
2022-11-16T10:23:19.894Z,23.35
2022-11-16T10:25:58.133Z,23.55
2022-11-16T10:28:44.414Z,23.32
2022-11-16T10:31:26.483Z,23.17
2022-11-16T10:33:57.116Z,23.78
2022-11-16T10:36:27.871Z,24.94
2022-11-16T10:38:57.428Z,25.19
2022-11-16T10:41:24.505Z,26.11
2022-11-16T10:43:51.526Z,26.65
2022-11-16T10:46:21.011Z,26.64
2022-11-16T10:49:06.706Z,26.06
2022-11-16T10:51:33.641Z,25.64
2022-11-16T10:54:00.582Z,25.60
2022-11-16T10:56:40.487Z,26.34
2022-11-16T10:59:12.607Z,26.07
2022-11-16T11:01:39.564Z,25.92
2022-11-16T11:04:28.955Z,25.41
2022-11-16T11:06:57.169Z,26.86
2022-11-16T11:09:34.108Z,27.53
2022-11-16T11:12:32.853Z,26.74
2022-11-16T11:15:11.617Z,27.10
2022-11-16T11:17:44.183Z,26.87
2022-11-16T11:20:17.218Z,27.28
2022-11-16T11:22:54.048Z,27.55
2022-11-16T11:25:41.324Z,28.31
2022-11-16T11:28:43.302Z,28.00
2022-11-16T11:31:22.762Z,27.28
2022-11-16T11:33:52.076Z,27.25
2022-11-16T11:36:22.720Z,26.45
2022-11-16T11:38:59.113Z,26.10
2022-11-16T11:41:32.568Z,25.90
2022-11-16T11:44:05.207Z,27.19
2022-11-16T11:47:42.503Z,28.32
2022-11-16T11:49:43.103Z,29.01
2022-11-16T11:52:19.716Z,29.10
2022-11-16T11:54:49.162Z,28.42
2022-11-16T11:57:23.368Z,27.82
2022-11-16T11:59:52.317Z,28.68
2022-11-16T12:03:15.531Z,29.43
2022-11-16T12:05:57.764Z,29.70
2022-11-16T12:08:32.660Z,28.84
2022-11-16T12:11:06.443Z,27.80
2022-11-16T12:14:05.885Z,28.31
2022-11-16T12:17:01.044Z,28.88
2022-11-16T12:19:43.268Z,29.62
2022-11-16T12:22:55.745Z,28.81
2022-11-16T12:25:27.047Z,28.63
2022-11-16T12:28:30.462Z,29.14
2022-11-16T12:31:28.921Z,29.77
2022-11-16T12:34:14.146Z,28.67
2022-11-16T12:36:49.653Z,27.98
2022-11-16T12:39:35.760Z,29.07
2022-11-16T12:42:27.784Z,29.53
2022-11-16T12:45:10.438Z,29.98
2022-11-16T12:48:11.589Z,29.46
2022-11-16T12:50:41.327Z,28.55
2022-11-16T12:53:36.346Z,28.24
2022-11-16T12:56:06.059Z,26.84
2022-11-16T12:58:46.105Z,26.69
2022-11-16T13:01:23.337Z,25.80
2022-11-16T13:03:55.311Z,26.67
2022-11-16T13:06:32.101Z,26.83
2022-11-16T13:09:06.166Z,27.67
2022-11-16T13:11:40.336Z,27.22
2022-11-16T13:14:15.925Z,27.81
2022-11-16T13:16:44.628Z,27.90
2022-11-16T13:19:15.983Z,28.52
2022-11-16T13:22:06.305Z,27.98
2022-11-16T13:24:45.289Z,26.74
2022-11-16T13:27:41.851Z,26.41
2022-11-16T13:30:21.779Z,26.90
2022-11-16T13:33:22.294Z,25.99
2022-11-16T13:35:49.156Z,25.81
2022-11-16T13:38:52.615Z,25.15
2022-11-16T13:41:33.752Z,24.16
2022-11-16T13:44:02.820Z,24.06
2022-11-16T13:46:55.836Z,24.39
2022-11-16T13:49:33.265Z,25.02
2022-11-16T13:52:22.528Z,25.39
2022-11-16T13:54:55.686Z,25.52
2022-11-16T13:57:34.028Z,25.24
2022-11-16T14:00:00.844Z,24.84
2022-11-16T14:02:39.238Z,24.18
2022-11-16T14:05:13.155Z,23.46
2022-11-16T14:07:51.098Z,23.50
2022-11-16T14:10:38.719Z,23.44
2022-11-16T14:13:26.507Z,22.56
2022-11-16T14:16:16.883Z,21.61
2022-11-16T14:18:45.252Z,21.52
2022-11-16T14:21:21.942Z,21.68
2022-11-16T14:23:57.757Z,20.93
2022-11-16T14:26:46.453Z,19.68
2022-11-16T14:29:34.837Z,19.82
2022-11-16T14:32:03.608Z,19.68
2022-11-16T14:34:32.371Z,19.76
2022-11-16T14:37:00.601Z,19.57
2022-11-16T14:39:32.141Z,18.69
2022-11-16T14:42:16.369Z,18.24
2022-11-16T14:44:43.877Z,17.95
2022-11-16T14:47:23.637Z,17.28
2022-11-16T14:49:51.372Z,16.80
2022-11-16T14:52:35.236Z,17.24
2022-11-16T14:55:06.540Z,17.06
2022-11-16T14:57:33.648Z,16.63
2022-11-16T15:00:11.190Z,16.13
2022-11-16T15:02:39.920Z,16.11
2022-11-16T15:05:07.346Z,16.17
2022-11-16T15:07:34.442Z,16.32
2022-11-16T15:10:01.523Z,16.23
2022-11-16T15:12:42.200Z,16.26
2022-11-16T15:15:11.843Z,16.27
2022-11-16T15:17:41.828Z,16.19
2022-11-16T15:20:25.234Z,16.20
2022-11-16T15:22:54.762Z,16.22
2022-11-16T15:25:32.076Z,16.04
2022-11-16T15:28:02.729Z,15.76
2022-11-16T15:30:34.202Z,15.24
2022-11-16T15:33:16.175Z,14.88
2022-11-16T15:35:43.244Z,15.16
2022-11-16T15:38:25.970Z,14.96
2022-11-16T15:40:56.326Z,14.47
2022-11-16T15:43:31.453Z,14.13
2022-11-16T15:45:59.752Z,14.10
2022-11-16T15:48:27.948Z,14.47
2022-11-16T15:51:03.154Z,14.14
2022-11-16T15:53:37.524Z,13.94
2022-11-16T15:56:30.677Z,13.95
2022-11-16T15:59:01.290Z,13.95
2022-11-16T16:01:31.187Z,14.10
2022-11-16T16:04:01.238Z,14.15
2022-11-16T16:06:44.281Z,13.88
2022-11-16T16:09:49.318Z,13.81
2022-11-16T16:12:19.862Z,13.73
2022-11-16T16:14:49.267Z,13.58
2022-11-16T16:17:28.362Z,13.85
2022-11-16T16:19:58.221Z,13.84
2022-11-16T16:22:29.781Z,14.01
2022-11-16T16:24:57.030Z,14.12
2022-11-16T16:27:26.374Z,14.05
2022-11-16T16:29:55.517Z,13.95
2022-11-16T16:32:27.057Z,13.88
2022-11-16T16:34:55.830Z,13.94
2022-11-16T16:37:23.714Z,13.57
2022-11-16T16:39:50.670Z,13.62
2022-11-16T16:42:18.006Z,13.54
2022-11-16T16:44:46.048Z,13.19
2022-11-16T16:47:13.555Z,13.21
2022-11-16T16:49:40.681Z,13.20
2022-11-16T16:52:08.635Z,12.97
2022-11-16T16:54:35.471Z,12.91
2022-11-16T16:57:02.562Z,12.90
2022-11-16T16:59:32.277Z,12.52
2022-11-16T17:01:59.458Z,12.88
2022-11-16T17:04:26.676Z,12.71
2022-11-16T17:06:54.345Z,12.65
2022-11-16T17:09:21.518Z,12.34
2022-11-16T17:11:48.588Z,12.27
2022-11-16T17:14:15.585Z,12.51
2022-11-16T17:16:42.427Z,12.46
2022-11-16T17:19:09.949Z,12.65
2022-11-16T17:21:36.780Z,12.57
2022-11-16T17:24:03.929Z,11.95
2022-11-16T17:26:30.920Z,12.02
2022-11-16T17:28:58.516Z,11.89
2022-11-16T17:31:28.024Z,11.96
2022-11-16T17:33:57.506Z,11.95
2022-11-16T17:36:24.387Z,12.03
2022-11-16T17:38:51.335Z,12.16
2022-11-16T17:41:21.768Z,11.88
2022-11-16T17:43:52.987Z,12.18
2022-11-16T17:46:23.577Z,11.98
2022-11-16T17:48:51.293Z,11.85
2022-11-16T17:51:20.664Z,11.99
2022-11-16T17:53:49.292Z,12.00
2022-11-16T17:56:19.051Z,12.20
2022-11-16T17:58:46.396Z,12.20
2022-11-16T18:01:14.334Z,12.06
2022-11-16T18:03:41.583Z,12.22
2022-11-16T18:06:13.333Z,12.40
2022-11-16T18:08:41.357Z,12.34
2022-11-16T18:11:10.907Z,12.49
2022-11-16T18:13:38.334Z,12.71
2022-11-16T18:16:12.601Z,12.63
2022-11-16T18:18:40.133Z,12.50
2022-11-16T18:21:08.605Z,12.52
2022-11-16T18:23:37.472Z,12.40
2022-11-16T18:26:08.476Z,12.31
2022-11-16T18:28:35.702Z,12.44
2022-11-16T18:31:07.618Z,12.53
2022-11-16T18:33:36.624Z,12.36
2022-11-16T18:36:05.124Z,12.16
2022-11-16T18:38:32.560Z,12.30
2022-11-16T18:41:03.239Z,11.91
2022-11-16T18:43:30.365Z,11.61
2022-11-16T18:45:57.315Z,11.77
2022-11-16T18:48:24.359Z,11.61
2022-11-16T18:50:51.241Z,11.82
2022-11-16T18:53:18.145Z,12.00
2022-11-16T18:55:57.589Z,12.13
2022-11-16T19:01:15.546Z,11.45
2022-11-16T19:03:42.698Z,11.60
2022-11-16T19:06:10.823Z,11.43
2022-11-16T19:08:40.430Z,11.58
2022-11-16T19:11:16.964Z,11.29
2022-11-16T19:13:44.757Z,11.33
2022-11-16T19:16:13.519Z,11.39
2022-11-16T19:18:40.460Z,11.47
2022-11-16T19:21:08.825Z,11.43
2022-11-16T19:23:44.492Z,11.49
2022-11-16T19:26:13.475Z,11.35
2022-11-16T19:28:46.072Z,11.39
2022-11-16T19:31:16.915Z,11.29
2022-11-16T19:33:45.199Z,10.83
2022-11-16T19:36:16.443Z,11.01
2022-11-16T19:38:45.081Z,11.21
2022-11-16T19:41:14.629Z,11.35
2022-11-16T19:43:42.021Z,10.96
2022-11-16T19:46:11.614Z,11.04
2022-11-16T19:48:39.281Z,11.42
2022-11-16T19:51:11.122Z,11.45
2022-11-16T19:53:39.313Z,11.51
2022-11-16T19:56:08.636Z,11.47
2022-11-16T19:58:37.114Z,11.46
2022-11-16T20:01:10.724Z,11.56
2022-11-16T20:03:38.686Z,11.30
2022-11-16T20:06:08.572Z,11.04
2022-11-16T20:08:36.673Z,11.23
2022-11-16T20:11:14.160Z,11.30
2022-11-16T20:13:42.547Z,11.09
2022-11-16T20:16:11.433Z,11.13
2022-11-16T20:18:39.264Z,11.17
2022-11-16T20:21:07.639Z,11.40
2022-11-16T20:23:35.366Z,11.34
2022-11-16T20:26:10.630Z,11.39
2022-11-16T20:28:39.586Z,11.56
2022-11-16T20:31:15.185Z,11.65
2022-11-16T20:33:42.488Z,11.62
2022-11-16T20:36:11.501Z,11.59
2022-11-16T20:38:39.327Z,11.49
2022-11-16T20:41:23.893Z,11.50
2022-11-16T20:43:52.525Z,11.50
2022-11-16T20:46:21.176Z,11.34
2022-11-16T20:48:48.296Z,11.36
2022-11-16T20:51:18.152Z,11.41
2022-11-16T20:53:46.489Z,11.43
2022-11-16T20:56:14.574Z,11.32
2022-11-16T20:58:41.639Z,11.30
2022-11-16T21:01:12.543Z,11.36
2022-11-16T21:03:40.445Z,11.42
2022-11-16T21:06:08.881Z,11.64
2022-11-16T21:08:37.529Z,11.47
2022-11-16T21:11:19.864Z,11.41
2022-11-16T21:14:05.624Z,11.49
2022-11-16T21:16:32.860Z,11.57
2022-11-16T21:19:00.892Z,11.53
2022-11-16T21:21:27.995Z,11.48
2022-11-16T21:23:55.215Z,11.74
2022-11-16T21:26:30.447Z,11.69
2022-11-16T21:28:59.466Z,11.80
2022-11-16T21:31:29.843Z,12.06
2022-11-16T21:33:57.841Z,11.88
2022-11-16T21:36:27.124Z,11.94
2022-11-16T21:38:54.780Z,11.97
2022-11-16T21:41:24.148Z,12.09
2022-11-16T21:43:51.235Z,11.97
2022-11-16T21:46:24.879Z,12.02
2022-11-16T21:48:52.978Z,11.91
2022-11-16T21:51:25.332Z,12.04
2022-11-16T21:53:52.616Z,11.60
2022-11-16T21:56:21.995Z,11.58
2022-11-16T21:58:50.470Z,11.70
2022-11-16T22:01:17.526Z,11.76
2022-11-16T22:03:44.999Z,11.88
2022-11-16T22:06:34.704Z,11.99
2022-11-16T22:09:02.061Z,11.95
2022-11-16T22:11:29.062Z,12.20
2022-11-16T22:13:55.945Z,12.30
2022-11-16T22:16:23.620Z,12.33
2022-11-16T22:18:51.042Z,12.13
2022-11-16T22:21:18.226Z,12.42
2022-11-16T22:23:45.165Z,12.48
2022-11-16T22:26:13.491Z,12.90
2022-11-16T22:28:40.410Z,12.91
2022-11-16T22:31:10.802Z,12.61
2022-11-16T22:33:38.461Z,12.65
2022-11-16T22:36:08.514Z,12.59
2022-11-16T22:38:35.773Z,12.60
2022-11-16T22:41:02.909Z,12.20
2022-11-16T22:43:31.180Z,11.94
2022-11-16T22:45:59.737Z,11.79
2022-11-16T22:48:34.823Z,11.50
2022-11-16T22:51:07.103Z,11.69
2022-11-16T22:53:34.860Z,11.76
2022-11-16T22:56:09.810Z,11.83
2022-11-16T22:58:37.775Z,11.82
2022-11-16T23:01:07.525Z,11.92
2022-11-16T23:03:35.022Z,12.06
2022-11-16T23:06:02.385Z,12.05
2022-11-16T23:08:29.798Z,11.66
2022-11-16T23:11:26.237Z,11.09
2022-11-16T23:14:12.701Z,11.28
2022-11-16T23:16:41.046Z,11.23
2022-11-16T23:19:28.611Z,11.43
2022-11-16T23:22:15.215Z,11.52
2022-11-16T23:25:01.124Z,11.50
2022-11-16T23:27:37.724Z,11.62
2022-11-16T23:30:12.194Z,11.16
2022-11-16T23:32:39.692Z,10.93
2022-11-16T23:35:06.856Z,10.82
2022-11-16T23:37:33.767Z,10.81
2022-11-16T23:40:00.670Z,11.10
2022-11-16T23:42:45.982Z,11.06
2022-11-16T23:45:12.936Z,11.32
2022-11-16T23:47:39.770Z,11.23
2022-11-16T23:50:06.881Z,11.18
2022-11-16T23:52:33.722Z,11.47
2022-11-16T23:55:00.712Z,10.61
2022-11-16T23:57:27.555Z,10.68
2022-11-16T23:59:54.408Z,10.99
